This is the latest recevied weather packets stored in our database for station/object KJ7BRE-1. If no packets are shown the sender has not sent any weather packets the latest 10 day(s).
| Time | Temp. | Humidity | Pressure | Rain* | Wind** | Luminosity | Snow |
|---|---|---|---|---|---|---|---|
| 1788022285 | 17.22° C | 70% | 1018.3 hPa | 0 mm | - | - | - |
| 1788021983 | 17.22° C | 71% | 1017.9 hPa | 0 mm | - | - | - |
| 1788021679 | 17.22° C | 72% | 1017.9 hPa | 0 mm | - | - | - |
| 1788021377 | 16.67° C | 74% | 1017.9 hPa | 0 mm | - | - | - |
| 1788021074 | 17.22° C | 73% | 1017.9 hPa | 0 mm | - | - | - |
| 1788020769 | 16.67° C | 74% | 1017.9 hPa | 0 mm | - | - | - |
| 1788020459 | 16.11° C | 77% | 1017.9 hPa | 0 mm | - | - | - |
| 1788020158 | 15.56° C | 77% | 1017.9 hPa | 0 mm | - | - | - |
| 1788019857 | 15.56° C | 78% | 1017.9 hPa | 0 mm | - | - | - |
| 1788019555 | 15.56° C | 78% | 1017.9 hPa | 0 mm | - | - | - |
| 1788019254 | 16.11° C | 75% | 1017.9 hPa | 0 mm | - | - | - |
| 1788018953 | 16.67° C | 74% | 1017.9 hPa | 0 mm | - | - | - |
| 1788018652 | 16.67° C | 74% | 1017.9 hPa | 0 mm | - | - | - |
| 1788018350 | 16.67° C | 76% | 1017.9 hPa | 0 mm | - | - | - |
| 1788018049 | 15.56° C | 78% | 1017.6 hPa | 0 mm | - | - | - |
| 1788017748 | 15.56° C | 77% | 1017.6 hPa | 0 mm | - | - | - |
| 1788017447 | 15.56° C | 77% | 1017.6 hPa | 0 mm | - | - | - |
| 1788017145 | 15° C | 79% | 1017.6 hPa | 0 mm | - | - | - |
| 1788016844 | 15° C | 78% | 1017.6 hPa | 0 mm | - | - | - |
| 1788016543 | 15° C | 80% | 1017.3 hPa | 0 mm | - | - | - |
| 1788016242 | 15° C | 80% | 1017.3 hPa | 0 mm | - | - | - |
| 1788015940 | 15° C | 79% | 1017.3 hPa | 0 mm | - | - | - |
| 1788015639 | 15° C | 81% | 1017.6 hPa | 0 mm | - | - | - |
| 1788015338 | 14.44° C | 81% | 1017.3 hPa | 0 mm | - | - | - |
| 1788015037 | 14.44° C | 82% | 1017.6 hPa | 0 mm | - | - | - |
* Rain latest hour (hover to see other rain measurements)
** Current wind speed in m/s (hover to see current wind gust speed)